sensor_id;sensor_type;location;lat;lon;timestamp;temperature;humidity
51011;DHT22;37038;50.182;8.624;2023-09-12T00:01:59;20.20;99.90
51011;DHT22;37038;50.182;8.624;2023-09-12T00:04:50;20.30;99.90
51011;DHT22;37038;50.182;8.624;2023-09-12T00:07:39;20.50;99.90
51011;DHT22;37038;50.182;8.624;2023-09-12T00:10:29;20.40;99.90
51011;DHT22;37038;50.182;8.624;2023-09-12T00:13:17;20.40;99.90
51011;DHT22;37038;50.182;8.624;2023-09-12T00:16:06;20.40;99.90
51011;DHT22;37038;50.182;8.624;2023-09-12T00:18:57;20.40;99.90
51011;DHT22;37038;50.182;8.624;2023-09-12T00:21:46;20.30;99.90
51011;DHT22;37038;50.182;8.624;2023-09-12T00:24:37;20.30;99.90
51011;DHT22;37038;50.182;8.624;2023-09-12T00:27:28;20.30;99.90
51011;DHT22;37038;50.182;8.624;2023-09-12T00:30:16;20.30;99.90
51011;DHT22;37038;50.182;8.624;2023-09-12T00:33:05;20.20;99.90
51011;DHT22;37038;50.182;8.624;2023-09-12T00:35:55;20.00;99.90
51011;DHT22;37038;50.182;8.624;2023-09-12T00:38:43;19.80;99.90
51011;DHT22;37038;50.182;8.624;2023-09-12T00:41:34;19.80;99.90
51011;DHT22;37038;50.182;8.624;2023-09-12T00:44:23;20.00;99.90
51011;DHT22;37038;50.182;8.624;2023-09-12T00:47:13;20.10;99.90
51011;DHT22;37038;50.182;8.624;2023-09-12T00:50:02;20.10;99.90
51011;DHT22;37038;50.182;8.624;2023-09-12T00:52:53;20.10;99.90
51011;DHT22;37038;50.182;8.624;2023-09-12T00:55:52;20.10;99.90
51011;DHT22;37038;50.182;8.624;2023-09-12T00:58:45;19.80;99.90
51011;DHT22;37038;50.182;8.624;2023-09-12T01:01:34;19.70;99.90
51011;DHT22;37038;50.182;8.624;2023-09-12T01:04:24;19.60;99.90
51011;DHT22;37038;50.182;8.624;2023-09-12T01:07:22;19.50;99.90
51011;DHT22;37038;50.182;8.624;2023-09-12T01:10:10;19.50;99.90
51011;DHT22;37038;50.182;8.624;2023-09-12T01:12:59;19.40;99.90
51011;DHT22;37038;50.182;8.624;2023-09-12T01:15:47;19.50;99.90
51011;DHT22;37038;50.182;8.624;2023-09-12T01:18:38;19.40;99.90
51011;DHT22;37038;50.182;8.624;2023-09-12T01:27:25;19.50;99.90
51011;DHT22;37038;50.182;8.624;2023-09-12T01:30:18;19.60;99.90
51011;DHT22;37038;50.182;8.624;2023-09-12T01:33:08;19.50;99.90
51011;DHT22;37038;50.182;8.624;2023-09-12T01:35:58;19.70;99.90
51011;DHT22;37038;50.182;8.624;2023-09-12T01:38:47;19.70;99.90
51011;DHT22;37038;50.182;8.624;2023-09-12T01:41:38;19.70;99.90
51011;DHT22;37038;50.182;8.624;2023-09-12T01:44:29;19.40;99.90
51011;DHT22;37038;50.182;8.624;2023-09-12T01:47:19;19.40;99.90
51011;DHT22;37038;50.182;8.624;2023-09-12T01:50:08;19.30;99.90
51011;DHT22;37038;50.182;8.624;2023-09-12T01:52:58;19.10;99.90
51011;DHT22;37038;50.182;8.624;2023-09-12T01:55:47;19.10;99.90
51011;DHT22;37038;50.182;8.624;2023-09-12T01:58:36;19.10;99.90
51011;DHT22;37038;50.182;8.624;2023-09-12T02:01:25;19.30;99.90
51011;DHT22;37038;50.182;8.624;2023-09-12T02:04:15;19.10;99.90
51011;DHT22;37038;50.182;8.624;2023-09-12T02:07:05;19.10;99.90
51011;DHT22;37038;50.182;8.624;2023-09-12T02:09:53;19.00;99.90
51011;DHT22;37038;50.182;8.624;2023-09-12T02:12:42;18.80;99.90
51011;DHT22;37038;50.182;8.624;2023-09-12T02:15:32;18.80;99.90
51011;DHT22;37038;50.182;8.624;2023-09-12T02:18:21;18.90;99.90
51011;DHT22;37038;50.182;8.624;2023-09-12T02:21:11;19.00;99.90
51011;DHT22;37038;50.182;8.624;2023-09-12T02:23:59;19.00;99.90
51011;DHT22;37038;50.182;8.624;2023-09-12T02:26:50;19.00;99.90
51011;DHT22;37038;50.182;8.624;2023-09-12T02:29:38;19.00;99.90
51011;DHT22;37038;50.182;8.624;2023-09-12T02:32:27;19.00;99.90
51011;DHT22;37038;50.182;8.624;2023-09-12T02:35:15;19.10;99.90
51011;DHT22;37038;50.182;8.624;2023-09-12T02:38:03;19.20;99.90
51011;DHT22;37038;50.182;8.624;2023-09-12T02:40:52;19.30;99.90
51011;DHT22;37038;50.182;8.624;2023-09-12T02:43:43;19.30;99.90
51011;DHT22;37038;50.182;8.624;2023-09-12T02:46:34;19.30;99.90
51011;DHT22;37038;50.182;8.624;2023-09-12T02:49:22;19.10;99.90
51011;DHT22;37038;50.182;8.624;2023-09-12T02:52:12;19.20;99.90
51011;DHT22;37038;50.182;8.624;2023-09-12T02:55:00;19.20;99.90
51011;DHT22;37038;50.182;8.624;2023-09-12T02:57:49;19.30;99.90
51011;DHT22;37038;50.182;8.624;2023-09-12T03:00:39;19.30;99.90
51011;DHT22;37038;50.182;8.624;2023-09-12T03:03:33;19.20;99.90
51011;DHT22;37038;50.182;8.624;2023-09-12T03:06:23;19.20;99.90
51011;DHT22;37038;50.182;8.624;2023-09-12T03:09:12;19.20;99.90
51011;DHT22;37038;50.182;8.624;2023-09-12T03:12:07;19.00;99.90
51011;DHT22;37038;50.182;8.624;2023-09-12T03:14:57;18.90;99.90
51011;DHT22;37038;50.182;8.624;2023-09-12T03:17:45;18.80;99.90
51011;DHT22;37038;50.182;8.624;2023-09-12T03:20:37;18.80;99.90
51011;DHT22;37038;50.182;8.624;2023-09-12T03:23:26;18.70;99.90
51011;DHT22;37038;50.182;8.624;2023-09-12T03:26:14;18.80;99.90
51011;DHT22;37038;50.182;8.624;2023-09-12T03:29:05;18.50;99.90
51011;DHT22;37038;50.182;8.624;2023-09-12T03:31:53;18.40;99.90
51011;DHT22;37038;50.182;8.624;2023-09-12T03:34:41;18.60;99.90
51011;DHT22;37038;50.182;8.624;2023-09-12T03:37:29;18.40;99.90
51011;DHT22;37038;50.182;8.624;2023-09-12T03:40:16;18.30;99.90
51011;DHT22;37038;50.182;8.624;2023-09-12T03:43:07;18.40;99.90
51011;DHT22;37038;50.182;8.624;2023-09-12T03:45:54;18.40;99.90
51011;DHT22;37038;50.182;8.624;2023-09-12T03:48:42;18.40;99.90
51011;DHT22;37038;50.182;8.624;2023-09-12T03:51:33;18.50;99.90
51011;DHT22;37038;50.182;8.624;2023-09-12T03:54:20;18.60;99.90
51011;DHT22;37038;50.182;8.624;2023-09-12T03:57:09;18.70;99.90
51011;DHT22;37038;50.182;8.624;2023-09-12T03:59:58;18.80;99.90
51011;DHT22;37038;50.182;8.624;2023-09-12T04:02:45;18.60;99.90
51011;DHT22;37038;50.182;8.624;2023-09-12T04:05:33;18.70;99.90
51011;DHT22;37038;50.182;8.624;2023-09-12T04:08:22;18.80;99.90
51011;DHT22;37038;50.182;8.624;2023-09-12T04:11:11;18.70;99.90
51011;DHT22;37038;50.182;8.624;2023-09-12T04:13:59;18.90;99.90
51011;DHT22;37038;50.182;8.624;2023-09-12T04:16:47;18.90;99.90
51011;DHT22;37038;50.182;8.624;2023-09-12T04:19:35;18.90;99.90
51011;DHT22;37038;50.182;8.624;2023-09-12T04:22:22;19.00;99.90
51011;DHT22;37038;50.182;8.624;2023-09-12T04:25:13;18.90;99.90
51011;DHT22;37038;50.182;8.624;2023-09-12T04:28:01;18.90;99.90
51011;DHT22;37038;50.182;8.624;2023-09-12T04:30:49;19.00;99.90
51011;DHT22;37038;50.182;8.624;2023-09-12T04:33:37;19.10;99.90
51011;DHT22;37038;50.182;8.624;2023-09-12T04:36:27;19.00;99.90
51011;DHT22;37038;50.182;8.624;2023-09-12T04:39:18;19.10;99.90
51011;DHT22;37038;50.182;8.624;2023-09-12T04:42:07;19.30;99.90
51011;DHT22;37038;50.182;8.624;2023-09-12T04:44:56;19.30;99.90
51011;DHT22;37038;50.182;8.624;2023-09-12T04:47:44;19.40;99.90
51011;DHT22;37038;50.182;8.624;2023-09-12T04:50:33;19.30;99.90
51011;DHT22;37038;50.182;8.624;2023-09-12T04:53:27;19.40;99.90
51011;DHT22;37038;50.182;8.624;2023-09-12T04:56:22;19.20;99.90
51011;DHT22;37038;50.182;8.624;2023-09-12T04:59:13;19.30;99.90
51011;DHT22;37038;50.182;8.624;2023-09-12T05:02:02;19.50;99.90
51011;DHT22;37038;50.182;8.624;2023-09-12T05:04:50;19.60;99.90
51011;DHT22;37038;50.182;8.624;2023-09-12T05:07:40;19.70;99.90
51011;DHT22;37038;50.182;8.624;2023-09-12T05:10:28;19.60;99.90
51011;DHT22;37038;50.182;8.624;2023-09-12T05:13:15;19.60;99.90
51011;DHT22;37038;50.182;8.624;2023-09-12T05:16:03;19.50;99.90
51011;DHT22;37038;50.182;8.624;2023-09-12T05:18:51;18.90;99.90
51011;DHT22;37038;50.182;8.624;2023-09-12T05:21:38;18.50;99.90
51011;DHT22;37038;50.182;8.624;2023-09-12T05:24:26;18.40;99.90
51011;DHT22;37038;50.182;8.624;2023-09-12T05:27:21;18.70;99.90
51011;DHT22;37038;50.182;8.624;2023-09-12T05:30:09;18.70;99.90
51011;DHT22;37038;50.182;8.624;2023-09-12T05:32:58;18.80;99.90
51011;DHT22;37038;50.182;8.624;2023-09-12T05:35:50;19.20;99.90
51011;DHT22;37038;50.182;8.624;2023-09-12T05:38:38;19.50;99.90
51011;DHT22;37038;50.182;8.624;2023-09-12T05:41:25;19.70;99.90
51011;DHT22;37038;50.182;8.624;2023-09-12T05:44:27;20.00;99.90
51011;DHT22;37038;50.182;8.624;2023-09-12T05:47:15;20.20;99.90
51011;DHT22;37038;50.182;8.624;2023-09-12T05:50:03;20.40;99.90
51011;DHT22;37038;50.182;8.624;2023-09-12T05:52:53;20.50;99.90
51011;DHT22;37038;50.182;8.624;2023-09-12T05:55:42;20.50;99.90
51011;DHT22;37038;50.182;8.624;2023-09-12T05:58:31;20.60;99.90
51011;DHT22;37038;50.182;8.624;2023-09-12T06:01:22;20.50;99.90
51011;DHT22;37038;50.182;8.624;2023-09-12T06:04:10;20.60;99.90
51011;DHT22;37038;50.182;8.624;2023-09-12T06:06:58;20.60;99.90
51011;DHT22;37038;50.182;8.624;2023-09-12T06:09:46;20.70;99.90
51011;DHT22;37038;50.182;8.624;2023-09-12T06:12:35;20.90;99.90
51011;DHT22;37038;50.182;8.624;2023-09-12T06:15:26;20.80;99.90
51011;DHT22;37038;50.182;8.624;2023-09-12T06:18:16;20.90;99.90
51011;DHT22;37038;50.182;8.624;2023-09-12T06:21:06;20.80;99.90
51011;DHT22;37038;50.182;8.624;2023-09-12T06:24:09;20.70;99.90
51011;DHT22;37038;50.182;8.624;2023-09-12T06:27:01;20.70;99.90
51011;DHT22;37038;50.182;8.624;2023-09-12T06:29:52;20.80;99.90
51011;DHT22;37038;50.182;8.624;2023-09-12T06:32:40;20.90;99.90
51011;DHT22;37038;50.182;8.624;2023-09-12T06:35:31;21.00;99.90
51011;DHT22;37038;50.182;8.624;2023-09-12T06:38:21;21.00;99.90
51011;DHT22;37038;50.182;8.624;2023-09-12T06:41:09;20.80;99.90
51011;DHT22;37038;50.182;8.624;2023-09-12T06:43:58;20.90;99.90
51011;DHT22;37038;50.182;8.624;2023-09-12T06:46:47;21.30;99.90
51011;DHT22;37038;50.182;8.624;2023-09-12T06:49:35;21.50;99.90
51011;DHT22;37038;50.182;8.624;2023-09-12T06:52:25;21.80;99.90
51011;DHT22;37038;50.182;8.624;2023-09-12T06:55:14;21.50;99.90
51011;DHT22;37038;50.182;8.624;2023-09-12T06:58:02;21.20;99.90
51011;DHT22;37038;50.182;8.624;2023-09-12T07:00:51;21.80;99.90
51011;DHT22;37038;50.182;8.624;2023-09-12T07:03:44;22.30;99.90
51011;DHT22;37038;50.182;8.624;2023-09-12T07:06:32;22.70;99.90
51011;DHT22;37038;50.182;8.624;2023-09-12T07:09:22;22.80;99.90
51011;DHT22;37038;50.182;8.624;2023-09-12T07:12:16;22.90;99.90
51011;DHT22;37038;50.182;8.624;2023-09-12T07:15:23;24.60;99.90
51011;DHT22;37038;50.182;8.624;2023-09-12T07:18:41;27.40;99.90
51011;DHT22;37038;50.182;8.624;2023-09-12T07:22:14;28.80;99.90
51011;DHT22;37038;50.182;8.624;2023-09-12T07:25:30;29.80;99.90
51011;DHT22;37038;50.182;8.624;2023-09-12T07:28:36;30.90;98.10
51011;DHT22;37038;50.182;8.624;2023-09-12T07:31:46;31.40;96.30
51011;DHT22;37038;50.182;8.624;2023-09-12T07:34:51;31.60;94.80
51011;DHT22;37038;50.182;8.624;2023-09-12T07:38:16;31.60;94.10
51011;DHT22;37038;50.182;8.624;2023-09-12T07:41:23;30.90;93.20
51011;DHT22;37038;50.182;8.624;2023-09-12T07:48:03;31.50;93.30
51011;DHT22;37038;50.182;8.624;2023-09-12T07:50:58;32.30;91.90
51011;DHT22;37038;50.182;8.624;2023-09-12T07:54:11;32.50;90.10
51011;DHT22;37038;50.182;8.624;2023-09-12T07:57:44;33.30;85.70
51011;DHT22;37038;50.182;8.624;2023-09-12T08:04:17;33.40;81.20
51011;DHT22;37038;50.182;8.624;2023-09-12T08:07:59;32.60;84.10
51011;DHT22;37038;50.182;8.624;2023-09-12T08:11:01;32.20;84.20
51011;DHT22;37038;50.182;8.624;2023-09-12T08:13:57;32.00;82.70
51011;DHT22;37038;50.182;8.624;2023-09-12T08:20:18;31.60;84.00
51011;DHT22;37038;50.182;8.624;2023-09-12T08:27:05;31.60;79.50
51011;DHT22;37038;50.182;8.624;2023-09-12T08:30:20;32.10;80.80
51011;DHT22;37038;50.182;8.624;2023-09-12T08:36:56;35.20;71.50
51011;DHT22;37038;50.182;8.624;2023-09-12T08:47:21;36.00;63.20
51011;DHT22;37038;50.182;8.624;2023-09-12T08:54:29;36.10;53.30
51011;DHT22;37038;50.182;8.624;2023-09-12T08:57:17;34.30;55.00
51011;DHT22;37038;50.182;8.624;2023-09-12T09:00:24;35.40;53.40
51011;DHT22;37038;50.182;8.624;2023-09-12T09:03:30;36.00;50.10
51011;DHT22;37038;50.182;8.624;2023-09-12T09:06:46;35.70;49.00
51011;DHT22;37038;50.182;8.624;2023-09-12T09:13:51;35.90;46.90
51011;DHT22;37038;50.182;8.624;2023-09-12T09:17:19;35.80;44.00
51011;DHT22;37038;50.182;8.624;2023-09-12T09:20:43;32.50;47.50
51011;DHT22;37038;50.182;8.624;2023-09-12T09:23:46;34.80;47.30
51011;DHT22;37038;50.182;8.624;2023-09-12T09:26:43;35.80;46.90
51011;DHT22;37038;50.182;8.624;2023-09-12T09:29:46;36.90;48.00
51011;DHT22;37038;50.182;8.624;2023-09-12T09:32:56;35.80;42.50
51011;DHT22;37038;50.182;8.624;2023-09-12T09:36:17;36.20;41.90
51011;DHT22;37038;50.182;8.624;2023-09-12T09:39:12;37.60;38.50
51011;DHT22;37038;50.182;8.624;2023-09-12T09:42:17;38.70;35.00
51011;DHT22;37038;50.182;8.624;2023-09-12T09:49:19;38.40;30.40
51011;DHT22;37038;50.182;8.624;2023-09-12T09:52:24;31.90;39.00
51011;DHT22;37038;50.182;8.624;2023-09-12T09:55:40;31.00;47.00
51011;DHT22;37038;50.182;8.624;2023-09-12T09:58:48;32.10;46.90
51011;DHT22;37038;50.182;8.624;2023-09-12T10:02:22;31.40;49.10
51011;DHT22;37038;50.182;8.624;2023-09-12T10:05:29;30.00;52.40
51011;DHT22;37038;50.182;8.624;2023-09-12T10:08:42;30.20;54.50
51011;DHT22;37038;50.182;8.624;2023-09-12T10:11:47;29.30;58.00
51011;DHT22;37038;50.182;8.624;2023-09-12T10:15:03;30.80;57.70
51011;DHT22;37038;50.182;8.624;2023-09-12T10:18:00;32.70;51.40
51011;DHT22;37038;50.182;8.624;2023-09-12T10:21:19;31.80;51.60
51011;DHT22;37038;50.182;8.624;2023-09-12T10:27:42;34.00;45.00
51011;DHT22;37038;50.182;8.624;2023-09-12T10:30:35;34.60;44.50
51011;DHT22;37038;50.182;8.624;2023-09-12T10:33:27;32.90;42.60
51011;DHT22;37038;50.182;8.624;2023-09-12T10:36:19;32.00;45.50
51011;DHT22;37038;50.182;8.624;2023-09-12T10:39:13;32.10;48.60
51011;DHT22;37038;50.182;8.624;2023-09-12T10:42:05;31.70;46.40
51011;DHT22;37038;50.182;8.624;2023-09-12T10:44:57;30.20;50.10
51011;DHT22;37038;50.182;8.624;2023-09-12T10:47:53;31.40;48.80
51011;DHT22;37038;50.182;8.624;2023-09-12T10:50:42;33.70;49.90
51011;DHT22;37038;50.182;8.624;2023-09-12T10:53:38;33.80;43.40
51011;DHT22;37038;50.182;8.624;2023-09-12T10:56:33;32.30;45.30
51011;DHT22;37038;50.182;8.624;2023-09-12T10:59:28;34.60;44.30
51011;DHT22;37038;50.182;8.624;2023-09-12T11:02:27;35.70;42.50
51011;DHT22;37038;50.182;8.624;2023-09-12T11:05:37;35.30;37.30
51011;DHT22;37038;50.182;8.624;2023-09-12T11:08:38;34.40;41.70
51011;DHT22;37038;50.182;8.624;2023-09-12T11:11:29;36.10;36.80
51011;DHT22;37038;50.182;8.624;2023-09-12T11:17:42;39.70;32.10
51011;DHT22;37038;50.182;8.624;2023-09-12T11:20:48;36.30;30.40
51011;DHT22;37038;50.182;8.624;2023-09-12T11:23:41;34.60;34.60
51011;DHT22;37038;50.182;8.624;2023-09-12T11:26:35;32.50;38.20
51011;DHT22;37038;50.182;8.624;2023-09-12T11:29:27;31.90;40.90
51011;DHT22;37038;50.182;8.624;2023-09-12T11:32:32;33.30;37.20
51011;DHT22;37038;50.182;8.624;2023-09-12T11:35:29;30.30;41.10
51011;DHT22;37038;50.182;8.624;2023-09-12T11:38:25;29.80;46.20
51011;DHT22;37038;50.182;8.624;2023-09-12T11:41:38;30.30;45.20
51011;DHT22;37038;50.182;8.624;2023-09-12T11:44:30;30.50;46.20
51011;DHT22;37038;50.182;8.624;2023-09-12T11:47:21;34.30;42.70
51011;DHT22;37038;50.182;8.624;2023-09-12T11:50:25;34.30;40.70
51011;DHT22;37038;50.182;8.624;2023-09-12T11:53:14;32.10;44.00
51011;DHT22;37038;50.182;8.624;2023-09-12T11:56:05;30.80;46.00
51011;DHT22;37038;50.182;8.624;2023-09-12T11:58:54;31.00;47.20
51011;DHT22;37038;50.182;8.624;2023-09-12T12:01:59;30.70;49.20
51011;DHT22;37038;50.182;8.624;2023-09-12T12:04:52;31.20;50.50
51011;DHT22;37038;50.182;8.624;2023-09-12T12:07:45;32.50;47.10
51011;DHT22;37038;50.182;8.624;2023-09-12T12:10:37;32.80;48.60
51011;DHT22;37038;50.182;8.624;2023-09-12T12:13:29;32.50;45.80
51011;DHT22;37038;50.182;8.624;2023-09-12T12:16:24;32.40;46.90
51011;DHT22;37038;50.182;8.624;2023-09-12T12:19:16;32.80;47.70
51011;DHT22;37038;50.182;8.624;2023-09-12T12:22:05;33.40;44.70
51011;DHT22;37038;50.182;8.624;2023-09-12T12:25:10;32.50;44.80
51011;DHT22;37038;50.182;8.624;2023-09-12T12:28:02;31.20;48.60
51011;DHT22;37038;50.182;8.624;2023-09-12T12:31:10;31.30;49.40
51011;DHT22;37038;50.182;8.624;2023-09-12T12:33:59;32.00;49.10
51011;DHT22;37038;50.182;8.624;2023-09-12T12:37:10;32.30;47.20
51011;DHT22;37038;50.182;8.624;2023-09-12T12:40:01;34.50;42.30
51011;DHT22;37038;50.182;8.624;2023-09-12T12:46:24;36.00;44.70
51011;DHT22;37038;50.182;8.624;2023-09-12T12:52:46;33.50;40.80
51011;DHT22;37038;50.182;8.624;2023-09-12T12:55:59;32.90;44.70
51011;DHT22;37038;50.182;8.624;2023-09-12T12:59:35;36.70;39.60
51011;DHT22;37038;50.182;8.624;2023-09-12T13:10:21;36.40;36.00
51011;DHT22;37038;50.182;8.624;2023-09-12T13:13:12;38.80;32.70
51011;DHT22;37038;50.182;8.624;2023-09-12T13:16:01;38.00;29.20
51011;DHT22;37038;50.182;8.624;2023-09-12T13:18:55;35.60;34.80
51011;DHT22;37038;50.182;8.624;2023-09-12T13:22:11;35.10;34.80
51011;DHT22;37038;50.182;8.624;2023-09-12T13:24:59;32.40;39.40
51011;DHT22;37038;50.182;8.624;2023-09-12T13:27:50;32.90;40.10
51011;DHT22;37038;50.182;8.624;2023-09-12T13:30:41;33.00;39.70
51011;DHT22;37038;50.182;8.624;2023-09-12T13:33:34;33.30;42.70
51011;DHT22;37038;50.182;8.624;2023-09-12T13:36:23;35.10;37.30
51011;DHT22;37038;50.182;8.624;2023-09-12T13:39:14;34.30;37.10
51011;DHT22;37038;50.182;8.624;2023-09-12T13:42:16;34.30;38.00
51011;DHT22;37038;50.182;8.624;2023-09-12T13:45:19;33.60;37.60
51011;DHT22;37038;50.182;8.624;2023-09-12T13:48:15;32.30;40.00
51011;DHT22;37038;50.182;8.624;2023-09-12T13:51:06;33.20;40.50
51011;DHT22;37038;50.182;8.624;2023-09-12T13:53:57;33.30;38.60
51011;DHT22;37038;50.182;8.624;2023-09-12T13:56:48;32.80;39.00
51011;DHT22;37038;50.182;8.624;2023-09-12T13:59:40;32.00;40.40
51011;DHT22;37038;50.182;8.624;2023-09-12T14:02:35;32.50;40.50
51011;DHT22;37038;50.182;8.624;2023-09-12T14:05:28;32.70;41.40
51011;DHT22;37038;50.182;8.624;2023-09-12T14:08:20;33.80;40.60
51011;DHT22;37038;50.182;8.624;2023-09-12T14:11:11;34.30;38.00
51011;DHT22;37038;50.182;8.624;2023-09-12T14:14:24;33.30;40.00
51011;DHT22;37038;50.182;8.624;2023-09-12T14:17:15;33.60;38.60
51011;DHT22;37038;50.182;8.624;2023-09-12T14:23:20;34.50;40.10
51011;DHT22;37038;50.182;8.624;2023-09-12T14:26:12;34.50;39.00
51011;DHT22;37038;50.182;8.624;2023-09-12T14:29:05;34.80;39.10
51011;DHT22;37038;50.182;8.624;2023-09-12T14:31:58;36.60;34.40
51011;DHT22;37038;50.182;8.624;2023-09-12T14:34:46;35.60;32.90
51011;DHT22;37038;50.182;8.624;2023-09-12T14:37:37;35.10;35.40
51011;DHT22;37038;50.182;8.624;2023-09-12T14:40:26;34.40;37.80
51011;DHT22;37038;50.182;8.624;2023-09-12T14:43:18;35.80;35.20
51011;DHT22;37038;50.182;8.624;2023-09-12T14:46:07;34.90;36.20
51011;DHT22;37038;50.182;8.624;2023-09-12T14:49:03;36.00;33.10
51011;DHT22;37038;50.182;8.624;2023-09-12T14:52:13;34.50;1.00
51011;DHT22;37038;50.182;8.624;2023-09-12T14:55:12;34.00;1.00
51011;DHT22;37038;50.182;8.624;2023-09-12T14:58:04;35.70;1.00
51011;DHT22;37038;50.182;8.624;2023-09-12T15:00:54;35.90;1.00
51011;DHT22;37038;50.182;8.624;2023-09-12T15:03:47;36.10;1.00
51011;DHT22;37038;50.182;8.624;2023-09-12T15:06:47;34.60;1.00
51011;DHT22;37038;50.182;8.624;2023-09-12T15:13:22;33.30;1.00
51011;DHT22;37038;50.182;8.624;2023-09-12T15:16:20;32.10;6.80
51011;DHT22;37038;50.182;8.624;2023-09-12T15:19:15;32.20;3.90
51011;DHT22;37038;50.182;8.624;2023-09-12T15:22:06;33.90;1.00
51011;DHT22;37038;50.182;8.624;2023-09-12T15:24:53;34.40;1.00
51011;DHT22;37038;50.182;8.624;2023-09-12T15:27:44;33.70;1.00
51011;DHT22;37038;50.182;8.624;2023-09-12T15:30:35;34.30;1.00
51011;DHT22;37038;50.182;8.624;2023-09-12T15:33:26;34.30;1.00
51011;DHT22;37038;50.182;8.624;2023-09-12T15:36:14;33.50;1.00
51011;DHT22;37038;50.182;8.624;2023-09-12T15:39:03;35.10;1.00
51011;DHT22;37038;50.182;8.624;2023-09-12T15:42:07;34.80;1.00
51011;DHT22;37038;50.182;8.624;2023-09-12T15:44:57;34.40;1.00
51011;DHT22;37038;50.182;8.624;2023-09-12T15:47:53;33.70;1.00
51011;DHT22;37038;50.182;8.624;2023-09-12T15:50:42;34.20;1.00
51011;DHT22;37038;50.182;8.624;2023-09-12T15:53:30;33.50;1.00
51011;DHT22;37038;50.182;8.624;2023-09-12T15:56:21;33.80;1.00
51011;DHT22;37038;50.182;8.624;2023-09-12T15:59:10;35.20;1.00
51011;DHT22;37038;50.182;8.624;2023-09-12T16:02:06;36.10;1.00
51011;DHT22;37038;50.182;8.624;2023-09-12T16:04:59;36.20;1.00
51011;DHT22;37038;50.182;8.624;2023-09-12T16:07:50;36.10;1.00
51011;DHT22;37038;50.182;8.624;2023-09-12T16:10:45;35.70;1.00
51011;DHT22;37038;50.182;8.624;2023-09-12T16:13:41;35.10;1.00
51011;DHT22;37038;50.182;8.624;2023-09-12T16:16:39;34.50;1.00
51011;DHT22;37038;50.182;8.624;2023-09-12T16:19:37;32.90;15.00
51011;DHT22;37038;50.182;8.624;2023-09-12T16:22:26;32.20;36.00
51011;DHT22;37038;50.182;8.624;2023-09-12T16:25:17;31.40;56.50
51011;DHT22;37038;50.182;8.624;2023-09-12T16:28:05;30.20;99.90
51011;DHT22;37038;50.182;8.624;2023-09-12T16:30:54;29.80;99.90
51011;DHT22;37038;50.182;8.624;2023-09-12T16:33:42;29.40;99.90
51011;DHT22;37038;50.182;8.624;2023-09-12T16:36:31;29.30;99.90
51011;DHT22;37038;50.182;8.624;2023-09-12T16:39:19;29.20;99.90
51011;DHT22;37038;50.182;8.624;2023-09-12T16:42:08;29.20;99.90
51011;DHT22;37038;50.182;8.624;2023-09-12T16:47:29;29.00;99.90
51011;DHT22;37038;50.182;8.624;2023-09-12T16:50:38;29.00;99.90
51011;DHT22;37038;50.182;8.624;2023-09-12T16:53:29;28.90;99.90
51011;DHT22;37038;50.182;8.624;2023-09-12T16:58:59;28.70;99.90
51011;DHT22;37038;50.182;8.624;2023-09-12T17:01:48;28.70;99.90
51011;DHT22;37038;50.182;8.624;2023-09-12T17:04:37;28.50;99.90
51011;DHT22;37038;50.182;8.624;2023-09-12T17:07:27;28.40;99.90
51011;DHT22;37038;50.182;8.624;2023-09-12T17:10:16;28.10;99.90
51011;DHT22;37038;50.182;8.624;2023-09-12T17:13:05;28.00;99.90
51011;DHT22;37038;50.182;8.624;2023-09-12T17:15:57;27.90;99.90
51011;DHT22;37038;50.182;8.624;2023-09-12T17:18:47;27.90;99.90
51011;DHT22;37038;50.182;8.624;2023-09-12T17:21:35;27.90;1.00
51011;DHT22;37038;50.182;8.624;2023-09-12T17:24:24;27.80;1.00
51011;DHT22;37038;50.182;8.624;2023-09-12T17:27:13;27.80;1.00
51011;DHT22;37038;50.182;8.624;2023-09-12T17:30:02;27.70;1.00
51011;DHT22;37038;50.182;8.624;2023-09-12T17:32:52;27.60;1.00
51011;DHT22;37038;50.182;8.624;2023-09-12T17:35:40;27.60;1.00
51011;DHT22;37038;50.182;8.624;2023-09-12T17:38:29;27.60;1.00
51011;DHT22;37038;50.182;8.624;2023-09-12T17:41:25;27.40;1.00
51011;DHT22;37038;50.182;8.624;2023-09-12T17:44:15;27.20;1.00
51011;DHT22;37038;50.182;8.624;2023-09-12T17:47:03;26.90;1.00
51011;DHT22;37038;50.182;8.624;2023-09-12T17:49:52;26.90;1.00
51011;DHT22;37038;50.182;8.624;2023-09-12T17:52:43;26.60;44.30
51011;DHT22;37038;50.182;8.624;2023-09-12T17:55:32;26.50;99.90
51011;DHT22;37038;50.182;8.624;2023-09-12T17:58:23;26.40;99.90
51011;DHT22;37038;50.182;8.624;2023-09-12T18:01:18;26.60;99.90
51011;DHT22;37038;50.182;8.624;2023-09-12T18:04:07;26.70;87.70
51011;DHT22;37038;50.182;8.624;2023-09-12T18:07:04;26.70;76.20
51011;DHT22;37038;50.182;8.624;2023-09-12T18:10:04;26.80;13.30
51011;DHT22;37038;50.182;8.624;2023-09-12T18:12:58;26.80;35.70
51011;DHT22;37038;50.182;8.624;2023-09-12T18:15:53;26.90;99.90
51011;DHT22;37038;50.182;8.624;2023-09-12T18:18:45;26.80;99.90
51011;DHT22;37038;50.182;8.624;2023-09-12T18:21:37;26.60;99.90
51011;DHT22;37038;50.182;8.624;2023-09-12T18:24:32;26.20;1.00
51011;DHT22;37038;50.182;8.624;2023-09-12T18:27:21;25.50;99.90
51011;DHT22;37038;50.182;8.624;2023-09-12T18:30:15;25.10;99.90
51011;DHT22;37038;50.182;8.624;2023-09-12T18:33:07;24.70;1.00
51011;DHT22;37038;50.182;8.624;2023-09-12T18:36:00;24.50;99.90
51011;DHT22;37038;50.182;8.624;2023-09-12T18:38:51;24.40;1.00
51011;DHT22;37038;50.182;8.624;2023-09-12T18:41:42;24.50;1.00
51011;DHT22;37038;50.182;8.624;2023-09-12T18:44:35;24.60;1.00
51011;DHT22;37038;50.182;8.624;2023-09-12T18:47:23;24.50;1.00
51011;DHT22;37038;50.182;8.624;2023-09-12T18:50:14;24.50;1.00
51011;DHT22;37038;50.182;8.624;2023-09-12T18:53:05;24.10;1.00
51011;DHT22;37038;50.182;8.624;2023-09-12T18:55:58;24.20;1.00
51011;DHT22;37038;50.182;8.624;2023-09-12T18:59:03;23.90;14.20
51011;DHT22;37038;50.182;8.624;2023-09-12T19:01:53;23.80;27.60
51011;DHT22;37038;50.182;8.624;2023-09-12T19:04:42;23.60;99.90
51011;DHT22;37038;50.182;8.624;2023-09-12T19:07:31;23.60;99.90
51011;DHT22;37038;50.182;8.624;2023-09-12T19:10:23;23.70;99.90
51011;DHT22;37038;50.182;8.624;2023-09-12T19:13:13;23.90;99.90
51011;DHT22;37038;50.182;8.624;2023-09-12T19:16:02;23.90;99.90
51011;DHT22;37038;50.182;8.624;2023-09-12T19:18:53;23.90;99.90
51011;DHT22;37038;50.182;8.624;2023-09-12T19:21:52;23.80;99.90
51011;DHT22;37038;50.182;8.624;2023-09-12T19:24:48;23.70;99.90
51011;DHT22;37038;50.182;8.624;2023-09-12T19:27:40;23.60;99.90
51011;DHT22;37038;50.182;8.624;2023-09-12T19:30:33;23.60;99.90
51011;DHT22;37038;50.182;8.624;2023-09-12T19:33:23;23.60;99.90
51011;DHT22;37038;50.182;8.624;2023-09-12T19:36:17;23.10;99.90
51011;DHT22;37038;50.182;8.624;2023-09-12T19:39:08;22.20;99.90